sensor_id;sensor_type;location;lat;lon;timestamp;pressure;altitude;pressure_sealevel;temperature;humidity
27334;BME280;14817;57.104;-2.094;2023-05-21T00:00:32;101381.09;;;12.12;100.00
27334;BME280;14817;57.104;-2.094;2023-05-21T00:02:58;101365.78;;;12.22;100.00
27334;BME280;14817;57.104;-2.094;2023-05-21T00:05:26;101358.16;;;12.28;100.00
27334;BME280;14817;57.104;-2.094;2023-05-21T00:07:52;101354.91;;;12.34;100.00
27334;BME280;14817;57.104;-2.094;2023-05-21T00:10:20;101360.28;;;12.34;100.00
27334;BME280;14817;57.104;-2.094;2023-05-21T00:12:47;101359.00;;;12.38;100.00
27334;BME280;14817;57.104;-2.094;2023-05-21T00:15:14;101354.78;;;12.25;100.00
27334;BME280;14817;57.104;-2.094;2023-05-21T00:17:41;101358.13;;;11.79;100.00
27334;BME280;14817;57.104;-2.094;2023-05-21T00:20:09;101357.69;;;11.54;100.00
27334;BME280;14817;57.104;-2.094;2023-05-21T00:22:36;101357.22;;;11.49;100.00
27334;BME280;14817;57.104;-2.094;2023-05-21T00:25:03;101360.78;;;11.09;100.00
27334;BME280;14817;57.104;-2.094;2023-05-21T00:27:30;101350.47;;;11.04;100.00
27334;BME280;14817;57.104;-2.094;2023-05-21T00:29:57;101354.09;;;10.94;100.00
27334;BME280;14817;57.104;-2.094;2023-05-21T00:32:24;101356.34;;;10.89;100.00
27334;BME280;14817;57.104;-2.094;2023-05-21T00:34:51;101359.94;;;10.78;100.00
27334;BME280;14817;57.104;-2.094;2023-05-21T00:37:19;101346.25;;;10.71;100.00
27334;BME280;14817;57.104;-2.094;2023-05-21T00:39:46;101358.75;;;10.71;100.00
27334;BME280;14817;57.104;-2.094;2023-05-21T00:42:13;101357.47;;;10.65;100.00
27334;BME280;14817;57.104;-2.094;2023-05-21T00:44:45;101356.28;;;10.58;100.00
27334;BME280;14817;57.104;-2.094;2023-05-21T00:47:12;101361.13;;;10.64;100.00
27334;BME280;14817;57.104;-2.094;2023-05-21T00:49:39;101357.16;;;10.58;100.00
27334;BME280;14817;57.104;-2.094;2023-05-21T00:52:06;101359.66;;;10.50;100.00
27334;BME280;14817;57.104;-2.094;2023-05-21T00:54:34;101353.56;;;10.48;100.00
27334;BME280;14817;57.104;-2.094;2023-05-21T00:57:02;101344.72;;;10.57;100.00
27334;BME280;14817;57.104;-2.094;2023-05-21T00:59:30;101342.59;;;10.51;100.00
27334;BME280;14817;57.104;-2.094;2023-05-21T01:01:58;101338.53;;;10.57;100.00
27334;BME280;14817;57.104;-2.094;2023-05-21T01:04:30;101334.84;;;10.58;100.00
27334;BME280;14817;57.104;-2.094;2023-05-21T01:06:57;101330.94;;;10.62;100.00
27334;BME280;14817;57.104;-2.094;2023-05-21T01:09:25;101331.13;;;10.70;100.00
27334;BME280;14817;57.104;-2.094;2023-05-21T01:11:53;101329.56;;;10.68;100.00
27334;BME280;14817;57.104;-2.094;2023-05-21T01:14:23;101334.34;;;10.64;100.00
27334;BME280;14817;57.104;-2.094;2023-05-21T01:16:51;101329.78;;;10.55;100.00
27334;BME280;14817;57.104;-2.094;2023-05-21T01:19:22;101328.25;;;10.62;100.00
27334;BME280;14817;57.104;-2.094;2023-05-21T01:21:59;101321.94;;;10.63;100.00
27334;BME280;14817;57.104;-2.094;2023-05-21T01:24:26;101317.84;;;10.69;100.00
27334;BME280;14817;57.104;-2.094;2023-05-21T01:26:53;101312.66;;;10.67;100.00
27334;BME280;14817;57.104;-2.094;2023-05-21T01:29:20;101316.28;;;10.66;100.00
27334;BME280;14817;57.104;-2.094;2023-05-21T01:34:33;101307.53;;;10.64;100.00
27334;BME280;14817;57.104;-2.094;2023-05-21T01:37:17;101308.97;;;10.68;100.00
27334;BME280;14817;57.104;-2.094;2023-05-21T01:39:51;101297.13;;;10.71;100.00
27334;BME280;14817;57.104;-2.094;2023-05-21T01:42:21;101299.97;;;10.69;100.00
27334;BME280;14817;57.104;-2.094;2023-05-21T01:44:55;101297.19;;;10.80;100.00
27334;BME280;14817;57.104;-2.094;2023-05-21T01:47:23;101296.66;;;10.87;100.00
27334;BME280;14817;57.104;-2.094;2023-05-21T01:49:51;101289.06;;;10.92;100.00
27334;BME280;14817;57.104;-2.094;2023-05-21T01:52:18;101288.94;;;11.03;100.00
27334;BME280;14817;57.104;-2.094;2023-05-21T01:54:45;101273.72;;;11.03;100.00
27334;BME280;14817;57.104;-2.094;2023-05-21T01:57:12;101279.81;;;11.15;100.00
27334;BME280;14817;57.104;-2.094;2023-05-21T01:59:39;101278.53;;;11.10;100.00
27334;BME280;14817;57.104;-2.094;2023-05-21T02:02:06;101276.41;;;11.13;100.00
27334;BME280;14817;57.104;-2.094;2023-05-21T02:04:33;101273.34;;;11.28;100.00
27334;BME280;14817;57.104;-2.094;2023-05-21T02:07:00;101284.06;;;11.28;100.00
27334;BME280;14817;57.104;-2.094;2023-05-21T02:09:27;101277.59;;;11.30;100.00
27334;BME280;14817;57.104;-2.094;2023-05-21T02:11:54;101283.41;;;11.35;100.00
27334;BME280;14817;57.104;-2.094;2023-05-21T02:14:21;101275.91;;;11.29;100.00
27334;BME280;14817;57.104;-2.094;2023-05-21T02:16:48;101275.63;;;11.52;100.00
27334;BME280;14817;57.104;-2.094;2023-05-21T02:19:15;101278.47;;;11.50;100.00
27334;BME280;14817;57.104;-2.094;2023-05-21T02:21:42;101276.22;;;11.65;100.00
27334;BME280;14817;57.104;-2.094;2023-05-21T02:24:09;101271.69;;;11.75;100.00
27334;BME280;14817;57.104;-2.094;2023-05-21T02:26:36;101283.56;;;11.82;100.00
27334;BME280;14817;57.104;-2.094;2023-05-21T02:29:03;101277.03;;;11.75;100.00
27334;BME280;14817;57.104;-2.094;2023-05-21T02:31:30;101279.72;;;11.75;100.00
27334;BME280;14817;57.104;-2.094;2023-05-21T02:33:57;101273.53;;;11.75;100.00
27334;BME280;14817;57.104;-2.094;2023-05-21T02:36:24;101267.19;;;11.76;100.00
27334;BME280;14817;57.104;-2.094;2023-05-21T02:38:51;101268.59;;;11.80;100.00
27334;BME280;14817;57.104;-2.094;2023-05-21T02:41:20;101271.28;;;11.90;100.00
27334;BME280;14817;57.104;-2.094;2023-05-21T02:43:47;101264.66;;;12.03;100.00
27334;BME280;14817;57.104;-2.094;2023-05-21T02:46:14;101267.47;;;12.02;100.00
27334;BME280;14817;57.104;-2.094;2023-05-21T02:48:41;101266.63;;;12.01;100.00
27334;BME280;14817;57.104;-2.094;2023-05-21T02:51:08;101266.72;;;12.10;100.00
27334;BME280;14817;57.104;-2.094;2023-05-21T02:53:35;101270.44;;;12.09;100.00
27334;BME280;14817;57.104;-2.094;2023-05-21T02:56:02;101263.06;;;12.11;100.00
27334;BME280;14817;57.104;-2.094;2023-05-21T02:58:29;101260.66;;;12.08;100.00
27334;BME280;14817;57.104;-2.094;2023-05-21T03:00:57;101260.38;;;12.11;100.00
27334;BME280;14817;57.104;-2.094;2023-05-21T03:03:26;101255.47;;;12.06;100.00
27334;BME280;14817;57.104;-2.094;2023-05-21T03:05:53;101267.75;;;12.09;100.00
27334;BME280;14817;57.104;-2.094;2023-05-21T03:08:20;101247.13;;;11.99;100.00
27334;BME280;14817;57.104;-2.094;2023-05-21T03:10:47;101258.97;;;12.07;100.00
27334;BME280;14817;57.104;-2.094;2023-05-21T03:13:15;101260.56;;;11.99;100.00
27334;BME280;14817;57.104;-2.094;2023-05-21T03:15:42;101262.22;;;12.00;100.00
27334;BME280;14817;57.104;-2.094;2023-05-21T03:18:09;101256.16;;;12.08;100.00
27334;BME280;14817;57.104;-2.094;2023-05-21T03:20:37;101261.38;;;12.10;100.00
27334;BME280;14817;57.104;-2.094;2023-05-21T03:23:09;101260.25;;;12.12;100.00
27334;BME280;14817;57.104;-2.094;2023-05-21T03:25:41;101265.06;;;12.09;100.00
27334;BME280;14817;57.104;-2.094;2023-05-21T03:28:09;101260.53;;;12.09;100.00
27334;BME280;14817;57.104;-2.094;2023-05-21T03:30:47;101266.19;;;12.06;100.00
27334;BME280;14817;57.104;-2.094;2023-05-21T03:33:33;101257.13;;;12.17;100.00
27334;BME280;14817;57.104;-2.094;2023-05-21T03:36:08;101264.91;;;12.10;100.00
27334;BME280;14817;57.104;-2.094;2023-05-21T03:38:36;101263.47;;;12.16;100.00
27334;BME280;14817;57.104;-2.094;2023-05-21T03:41:05;101270.97;;;12.22;100.00
27334;BME280;14817;57.104;-2.094;2023-05-21T03:43:32;101266.88;;;12.18;100.00
27334;BME280;14817;57.104;-2.094;2023-05-21T03:45:59;101266.59;;;12.21;100.00
27334;BME280;14817;57.104;-2.094;2023-05-21T03:48:48;101265.63;;;12.12;100.00
27334;BME280;14817;57.104;-2.094;2023-05-21T03:51:18;101266.88;;;12.18;100.00
27334;BME280;14817;57.104;-2.094;2023-05-21T03:53:46;101267.75;;;12.09;100.00
27334;BME280;14817;57.104;-2.094;2023-05-21T03:56:13;101260.97;;;12.14;100.00
27334;BME280;14817;57.104;-2.094;2023-05-21T03:58:40;101263.19;;;12.19;100.00
27334;BME280;14817;57.104;-2.094;2023-05-21T04:01:07;101268.13;;;12.33;100.00
27334;BME280;14817;57.104;-2.094;2023-05-21T04:03:35;101261.06;;;12.22;100.00
27334;BME280;14817;57.104;-2.094;2023-05-21T04:06:07;101270.97;;;12.22;100.00
27334;BME280;14817;57.104;-2.094;2023-05-21T04:08:37;101273.38;;;12.25;100.00
27334;BME280;14817;57.104;-2.094;2023-05-21T04:11:05;101266.28;;;12.24;100.00
27334;BME280;14817;57.104;-2.094;2023-05-21T04:13:31;101269.69;;;12.26;100.00
27334;BME280;14817;57.104;-2.094;2023-05-21T04:15:58;101265.44;;;12.33;100.00
27334;BME280;14817;57.104;-2.094;2023-05-21T04:18:25;101272.81;;;12.21;100.00
27334;BME280;14817;57.104;-2.094;2023-05-21T04:20:52;101268.00;;;12.25;100.00
27334;BME280;14817;57.104;-2.094;2023-05-21T04:23:19;101261.03;;;12.32;100.00
27334;BME280;14817;57.104;-2.094;2023-05-21T04:25:50;101258.78;;;12.28;100.00
27334;BME280;14817;57.104;-2.094;2023-05-21T04:28:18;101261.75;;;12.34;100.00
27334;BME280;14817;57.104;-2.094;2023-05-21T04:30:46;101266.53;;;12.40;100.00
27334;BME280;14817;57.104;-2.094;2023-05-21T04:33:13;101267.81;;;12.36;100.00
27334;BME280;14817;57.104;-2.094;2023-05-21T04:35:46;101263.72;;;12.32;100.00
27334;BME280;14817;57.104;-2.094;2023-05-21T04:38:19;101263.16;;;12.29;100.00
27334;BME280;14817;57.104;-2.094;2023-05-21T04:40:48;101268.25;;;12.32;100.00
27334;BME280;14817;57.104;-2.094;2023-05-21T04:43:19;101266.56;;;12.31;100.00
27334;BME280;14817;57.104;-2.094;2023-05-21T04:45:53;101271.91;;;12.31;100.00
27334;BME280;14817;57.104;-2.094;2023-05-21T04:48:24;101273.06;;;12.28;100.00
27334;BME280;14817;57.104;-2.094;2023-05-21T04:50:54;101269.09;;;12.32;100.00
27334;BME280;14817;57.104;-2.094;2023-05-21T04:53:22;101278.88;;;12.33;100.00
27334;BME280;14817;57.104;-2.094;2023-05-21T04:55:51;101280.16;;;12.29;100.00
27334;BME280;14817;57.104;-2.094;2023-05-21T04:58:18;101285.91;;;12.34;100.00
27334;BME280;14817;57.104;-2.094;2023-05-21T05:00:46;101292.44;;;12.22;100.00
27334;BME280;14817;57.104;-2.094;2023-05-21T05:03:14;101287.50;;;12.08;100.00
27334;BME280;14817;57.104;-2.094;2023-05-21T05:05:42;101284.84;;;11.98;100.00
27334;BME280;14817;57.104;-2.094;2023-05-21T05:08:09;101294.88;;;11.96;100.00
27334;BME280;14817;57.104;-2.094;2023-05-21T05:10:37;101290.06;;;11.90;100.00
27334;BME280;14817;57.104;-2.094;2023-05-21T05:13:04;101288.22;;;11.80;100.00
27334;BME280;14817;57.104;-2.094;2023-05-21T05:15:31;101287.50;;;11.69;100.00
27334;BME280;14817;57.104;-2.094;2023-05-21T05:17:59;101290.03;;;11.60;100.00
27334;BME280;14817;57.104;-2.094;2023-05-21T05:20:27;101287.66;;;11.67;100.00
27334;BME280;14817;57.104;-2.094;2023-05-21T05:22:54;101287.50;;;11.59;100.00
27334;BME280;14817;57.104;-2.094;2023-05-21T05:25:21;101295.13;;;11.44;100.00
27334;BME280;14817;57.104;-2.094;2023-05-21T05:27:48;101284.66;;;11.41;100.00
27334;BME280;14817;57.104;-2.094;2023-05-21T05:30:15;101289.75;;;11.44;100.00
27334;BME280;14817;57.104;-2.094;2023-05-21T05:32:42;101300.03;;;11.39;100.00
27334;BME280;14817;57.104;-2.094;2023-05-21T05:35:09;101292.84;;;11.30;100.00
27334;BME280;14817;57.104;-2.094;2023-05-21T05:37:37;101300.03;;;11.39;100.00
27334;BME280;14817;57.104;-2.094;2023-05-21T05:40:05;101297.22;;;11.40;100.00
27334;BME280;14817;57.104;-2.094;2023-05-21T05:42:32;101300.19;;;11.47;100.00
27334;BME280;14817;57.104;-2.094;2023-05-21T05:45:03;101299.34;;;11.47;100.00
27334;BME280;14817;57.104;-2.094;2023-05-21T05:47:32;101301.03;;;11.38;100.00
27334;BME280;14817;57.104;-2.094;2023-05-21T05:49:59;101305.22;;;11.31;100.00
27334;BME280;14817;57.104;-2.094;2023-05-21T05:52:26;101308.34;;;11.26;100.00
27334;BME280;14817;57.104;-2.094;2023-05-21T05:54:53;101314.28;;;11.30;100.00
27334;BME280;14817;57.104;-2.094;2023-05-21T05:57:20;101323.88;;;11.22;100.00
27334;BME280;14817;57.104;-2.094;2023-05-21T05:59:50;101326.16;;;11.37;100.00
27334;BME280;14817;57.104;-2.094;2023-05-21T06:02:17;101330.66;;;11.27;100.00
27334;BME280;14817;57.104;-2.094;2023-05-21T06:04:44;101335.88;;;11.28;100.00
27334;BME280;14817;57.104;-2.094;2023-05-21T06:07:12;101335.31;;;11.24;100.00
27334;BME280;14817;57.104;-2.094;2023-05-21T06:09:39;101332.63;;;11.24;100.00
27334;BME280;14817;57.104;-2.094;2023-05-21T06:12:06;101340.81;;;11.33;100.00
27334;BME280;14817;57.104;-2.094;2023-05-21T06:14:33;101339.13;;;11.32;100.00
27334;BME280;14817;57.104;-2.094;2023-05-21T06:17:00;101336.28;;;11.23;100.00
27334;BME280;14817;57.104;-2.094;2023-05-21T06:19:26;101336.88;;;11.37;100.00
27334;BME280;14817;57.104;-2.094;2023-05-21T06:21:54;101332.09;;;11.40;100.00
27334;BME280;14817;57.104;-2.094;2023-05-21T06:24:21;101337.31;;;11.42;100.00
27334;BME280;14817;57.104;-2.094;2023-05-21T06:26:48;101339.28;;;11.40;100.00
27334;BME280;14817;57.104;-2.094;2023-05-21T06:29:14;101338.88;;;11.44;100.00
27334;BME280;14817;57.104;-2.094;2023-05-21T06:31:44;101338.31;;;11.51;100.00
27334;BME280;14817;57.104;-2.094;2023-05-21T06:34:11;101340.88;;;11.52;100.00
27334;BME280;14817;57.104;-2.094;2023-05-21T06:36:38;101346.25;;;11.52;100.00
27334;BME280;14817;57.104;-2.094;2023-05-21T06:39:05;101348.06;;;11.52;100.00
27334;BME280;14817;57.104;-2.094;2023-05-21T06:41:33;101338.59;;;11.48;100.00
27334;BME280;14817;57.104;-2.094;2023-05-21T06:44:03;101348.06;;;11.52;100.00
27334;BME280;14817;57.104;-2.094;2023-05-21T06:46:57;101346.78;;;11.56;100.00
27334;BME280;14817;57.104;-2.094;2023-05-21T06:49:24;101349.63;;;11.54;100.00
27334;BME280;14817;57.104;-2.094;2023-05-21T06:51:52;101358.09;;;11.59;100.00
27334;BME280;14817;57.104;-2.094;2023-05-21T06:54:19;101352.44;;;11.62;100.00
27334;BME280;14817;57.104;-2.094;2023-05-21T06:56:45;101352.75;;;11.69;100.00
27334;BME280;14817;57.104;-2.094;2023-05-21T06:59:14;101355.84;;;11.64;100.00
27334;BME280;14817;57.104;-2.094;2023-05-21T07:01:42;101351.63;;;11.72;100.00
27334;BME280;14817;57.104;-2.094;2023-05-21T07:04:10;101354.75;;;11.77;100.00
27334;BME280;14817;57.104;-2.094;2023-05-21T07:06:38;101358.13;;;11.79;100.00
27334;BME280;14817;57.104;-2.094;2023-05-21T07:09:05;101358.13;;;11.79;100.00
27334;BME280;14817;57.104;-2.094;2023-05-21T07:11:33;101364.19;;;11.71;100.00
27334;BME280;14817;57.104;-2.094;2023-05-21T07:14:04;101362.94;;;11.85;100.00
27334;BME280;14817;57.104;-2.094;2023-05-21T07:16:33;101357.56;;;11.85;100.00
27334;BME280;14817;57.104;-2.094;2023-05-21T07:19:02;101357.00;;;11.72;100.00
27334;BME280;14817;57.104;-2.094;2023-05-21T07:21:29;101358.25;;;11.58;100.00
27334;BME280;14817;57.104;-2.094;2023-05-21T07:23:57;101369.81;;;11.58;100.00
27334;BME280;14817;57.104;-2.094;2023-05-21T07:26:24;101361.22;;;11.64;100.00
27334;BME280;14817;57.104;-2.094;2023-05-21T07:28:55;101363.84;;;11.95;100.00
27334;BME280;14817;57.104;-2.094;2023-05-21T07:31:21;101361.72;;;11.89;100.00
27334;BME280;14817;57.104;-2.094;2023-05-21T07:33:50;101364.47;;;11.68;100.00
27334;BME280;14817;57.104;-2.094;2023-05-21T07:36:21;101361.22;;;11.64;100.00
27334;BME280;14817;57.104;-2.094;2023-05-21T07:38:48;101362.78;;;11.77;100.00
27334;BME280;14817;57.104;-2.094;2023-05-21T07:41:15;101374.81;;;11.82;100.00
27334;BME280;14817;57.104;-2.094;2023-05-21T07:43:45;101376.06;;;11.78;100.00
27334;BME280;14817;57.104;-2.094;2023-05-21T07:46:13;101383.84;;;11.81;100.00
27334;BME280;14817;57.104;-2.094;2023-05-21T07:48:41;101377.22;;;11.76;100.00
27334;BME280;14817;57.104;-2.094;2023-05-21T07:51:09;101382.66;;;11.64;100.00
27334;BME280;14817;57.104;-2.094;2023-05-21T07:53:37;101382.25;;;11.59;100.00
27334;BME280;14817;57.104;-2.094;2023-05-21T07:56:09;101386.78;;;11.59;100.00
27334;BME280;14817;57.104;-2.094;2023-05-21T07:58:36;101390.97;;;11.52;100.00
27334;BME280;14817;57.104;-2.094;2023-05-21T08:01:03;101393.53;;;11.53;100.00
27334;BME280;14817;57.104;-2.094;2023-05-21T08:03:31;101387.44;;;11.51;100.00
27334;BME280;14817;57.104;-2.094;2023-05-21T08:05:59;101401.94;;;11.39;100.00
27334;BME280;14817;57.104;-2.094;2023-05-21T08:08:26;101404.91;;;11.36;100.00
27334;BME280;14817;57.104;-2.094;2023-05-21T08:10:55;101399.25;;;11.29;100.00
27334;BME280;14817;57.104;-2.094;2023-05-21T08:13:24;101400.69;;;11.33;100.00
27334;BME280;14817;57.104;-2.094;2023-05-21T08:15:52;101412.50;;;11.31;100.00
27334;BME280;14817;57.104;-2.094;2023-05-21T08:18:20;101410.59;;;11.42;100.00
27334;BME280;14817;57.104;-2.094;2023-05-21T08:20:51;101408.75;;;11.43;100.00
27334;BME280;14817;57.104;-2.094;2023-05-21T08:23:20;101408.63;;;11.44;100.00
27334;BME280;14817;57.104;-2.094;2023-05-21T08:25:50;101409.03;;;11.40;100.00
27334;BME280;14817;57.104;-2.094;2023-05-21T08:28:21;101410.59;;;11.42;100.00
27334;BME280;14817;57.104;-2.094;2023-05-21T08:30:50;101417.97;;;11.19;100.00
27334;BME280;14817;57.104;-2.094;2023-05-21T08:33:17;101411.97;;;11.37;100.00
27334;BME280;14817;57.104;-2.094;2023-05-21T08:35:46;101404.63;;;11.29;100.00
27334;BME280;14817;57.104;-2.094;2023-05-21T08:38:27;101408.63;;;11.44;100.00
27334;BME280;14817;57.104;-2.094;2023-05-21T08:41:15;101417.50;;;11.45;100.00
27334;BME280;14817;57.104;-2.094;2023-05-21T08:43:44;101411.88;;;11.48;100.00
27334;BME280;14817;57.104;-2.094;2023-05-21T08:46:18;101413.38;;;11.41;100.00
27334;BME280;14817;57.104;-2.094;2023-05-21T08:48:49;101413.38;;;11.41;100.00
27334;BME280;14817;57.104;-2.094;2023-05-21T08:51:16;101417.59;;;11.34;100.00
27334;BME280;14817;57.104;-2.094;2023-05-21T08:53:47;101418.50;;;11.44;100.00
27334;BME280;14817;57.104;-2.094;2023-05-21T08:56:16;101423.22;;;11.61;100.00
27334;BME280;14817;57.104;-2.094;2023-05-21T08:58:47;101420.78;;;11.58;100.00
27334;BME280;14817;57.104;-2.094;2023-05-21T09:01:18;101437.94;;;11.36;100.00
27334;BME280;14817;57.104;-2.094;2023-05-21T09:03:51;101439.59;;;11.28;100.00
27334;BME280;14817;57.104;-2.094;2023-05-21T09:06:20;101437.63;;;11.30;100.00
27334;BME280;14817;57.104;-2.094;2023-05-21T09:08:55;101443.00;;;11.30;100.00
27334;BME280;14817;57.104;-2.094;2023-05-21T09:11:30;101437.91;;;11.27;100.00
27334;BME280;14817;57.104;-2.094;2023-05-21T09:13:59;101439.06;;;11.34;100.00
27334;BME280;14817;57.104;-2.094;2023-05-21T09:16:40;101435.84;;;11.40;100.00
27334;BME280;14817;57.104;-2.094;2023-05-21T09:19:07;101432.81;;;11.54;100.00
27334;BME280;14817;57.104;-2.094;2023-05-21T09:21:38;101443.75;;;11.41;100.00
27334;BME280;14817;57.104;-2.094;2023-05-21T09:24:13;101446.13;;;11.35;100.00
27334;BME280;14817;57.104;-2.094;2023-05-21T09:26:42;101451.75;;;11.32;100.00
27334;BME280;14817;57.104;-2.094;2023-05-21T09:29:11;101447.06;;;11.24;100.00
27334;BME280;14817;57.104;-2.094;2023-05-21T09:31:43;101447.59;;;11.18;100.00
27334;BME280;14817;57.104;-2.094;2023-05-21T09:34:13;101446.66;;;11.29;100.00
27334;BME280;14817;57.104;-2.094;2023-05-21T09:36:41;101451.13;;;11.18;100.00
27334;BME280;14817;57.104;-2.094;2023-05-21T09:39:09;101454.75;;;11.38;100.00
27334;BME280;14817;57.104;-2.094;2023-05-21T09:41:42;101438.75;;;11.27;100.00
27334;BME280;14817;57.104;-2.094;2023-05-21T09:44:09;101437.63;;;11.30;100.00
27334;BME280;14817;57.104;-2.094;2023-05-21T09:46:39;101442.41;;;11.26;100.00
27334;BME280;14817;57.104;-2.094;2023-05-21T09:49:21;101431.44;;;11.39;100.00
27334;BME280;14817;57.104;-2.094;2023-05-21T09:51:52;101437.56;;;11.51;100.00
27334;BME280;14817;57.104;-2.094;2023-05-21T09:54:20;101435.06;;;11.69;100.00
27334;BME280;14817;57.104;-2.094;2023-05-21T09:56:47;101432.13;;;11.72;100.00
27334;BME280;14817;57.104;-2.094;2023-05-21T09:59:14;101421.72;;;11.88;100.00
27334;BME280;14817;57.104;-2.094;2023-05-21T10:01:41;101422.84;;;11.85;100.00
27334;BME280;14817;57.104;-2.094;2023-05-21T10:04:10;101418.22;;;12.26;100.00
27334;BME280;14817;57.104;-2.094;2023-05-21T10:06:42;101421.91;;;12.16;100.00
27334;BME280;14817;57.104;-2.094;2023-05-21T10:09:10;101416.66;;;11.95;100.00
27334;BME280;14817;57.104;-2.094;2023-05-21T10:11:38;101413.59;;;12.19;100.00
27334;BME280;14817;57.104;-2.094;2023-05-21T10:14:09;101410.16;;;12.26;100.00
27334;BME280;14817;57.104;-2.094;2023-05-21T10:16:41;101401.25;;;12.45;100.00
27334;BME280;14817;57.104;-2.094;2023-05-21T10:19:09;101406.22;;;12.40;100.00
27334;BME280;14817;57.104;-2.094;2023-05-21T10:21:37;101401.56;;;12.42;100.00
27334;BME280;14817;57.104;-2.094;2023-05-21T10:24:07;101405.94;;;12.53;100.00
27334;BME280;14817;57.104;-2.094;2023-05-21T10:26:34;101402.50;;;12.71;100.00
27334;BME280;14817;57.104;-2.094;2023-05-21T10:29:02;101403.41;;;12.42;100.00
27334;BME280;14817;57.104;-2.094;2023-05-21T10:31:29;101399.81;;;12.80;100.00
27334;BME280;14817;57.104;-2.094;2023-05-21T10:33:57;101396.84;;;12.64;100.00
27334;BME280;14817;57.104;-2.094;2023-05-21T10:36:29;101398.31;;;12.49;100.00
27334;BME280;14817;57.104;-2.094;2023-05-21T10:38:57;101412.16;;;12.54;100.00
27334;BME280;14817;57.104;-2.094;2023-05-21T10:41:26;101409.31;;;12.45;100.00
27334;BME280;14817;57.104;-2.094;2023-05-21T10:46:36;101409.75;;;12.41;100.00
27334;BME280;14817;57.104;-2.094;2023-05-21T10:49:48;101414.66;;;12.65;100.00
27334;BME280;14817;57.104;-2.094;2023-05-21T10:52:33;101407.44;;;12.85;100.00
27334;BME280;14817;57.104;-2.094;2023-05-21T10:55:18;101405.59;;;12.85;100.00
27334;BME280;14817;57.104;-2.094;2023-05-21T11:00:25;101412.94;;;12.83;100.00
27334;BME280;14817;57.104;-2.094;2023-05-21T11:02:52;101415.00;;;13.09;100.00
27334;BME280;14817;57.104;-2.094;2023-05-21T11:05:58;101414.59;;;13.04;100.00
27334;BME280;14817;57.104;-2.094;2023-05-21T11:08:27;101417.16;;;12.96;100.00
27334;BME280;14817;57.104;-2.094;2023-05-21T11:10:57;101419.19;;;13.21;100.00
27334;BME280;14817;57.104;-2.094;2023-05-21T11:13:25;101418.25;;;13.03;100.00
27334;BME280;14817;57.104;-2.094;2023-05-21T11:21:08;101422.72;;;13.22;100.00
27334;BME280;14817;57.104;-2.094;2023-05-21T11:26:19;101429.91;;;12.94;100.00
27334;BME280;14817;57.104;-2.094;2023-05-21T11:31:33;101422.81;;;12.93;100.00
27334;BME280;14817;57.104;-2.094;2023-05-21T11:36:37;101424.56;;;13.31;100.00
27334;BME280;14817;57.104;-2.094;2023-05-21T11:39:08;101432.66;;;13.21;100.00
27334;BME280;14817;57.104;-2.094;2023-05-21T11:42:00;101426.72;;;13.18;100.00
27334;BME280;14817;57.104;-2.094;2023-05-21T11:44:41;101430.16;;;13.10;100.00
27334;BME280;14817;57.104;-2.094;2023-05-21T11:47:10;101423.88;;;13.19;100.00
27334;BME280;14817;57.104;-2.094;2023-05-21T11:49:37;101430.53;;;13.15;100.00
27334;BME280;14817;57.104;-2.094;2023-05-21T11:52:05;101430.72;;;13.04;100.00
27334;BME280;14817;57.104;-2.094;2023-05-21T11:54:38;101445.97;;;13.13;100.00
27334;BME280;14817;57.104;-2.094;2023-05-21T11:57:06;101434.63;;;13.29;100.00
27334;BME280;14817;57.104;-2.094;2023-05-21T11:59:34;101441.53;;;12.75;100.00
27334;BME280;14817;57.104;-2.094;2023-05-21T12:02:01;101434.41;;;13.03;100.00
27334;BME280;14817;57.104;-2.094;2023-05-21T12:04:33;101430.09;;;13.30;100.00
27334;BME280;14817;57.104;-2.094;2023-05-21T12:07:06;101435.31;;;13.59;100.00
27334;BME280;14817;57.104;-2.094;2023-05-21T12:09:40;101430.97;;;13.58;100.00
27334;BME280;14817;57.104;-2.094;2023-05-21T12:12:07;101426.75;;;13.73;100.00
27334;BME280;14817;57.104;-2.094;2023-05-21T12:14:35;101430.16;;;13.75;100.00
27334;BME280;14817;57.104;-2.094;2023-05-21T12:17:05;101430.28;;;13.74;100.00
27334;BME280;14817;57.104;-2.094;2023-05-21T12:19:33;101429.44;;;13.73;100.00
27334;BME280;14817;57.104;-2.094;2023-05-21T12:22:02;101437.50;;;14.01;100.00
27334;BME280;14817;57.104;-2.094;2023-05-21T12:24:30;101430.50;;;14.08;100.00
27334;BME280;14817;57.104;-2.094;2023-05-21T12:26:58;101439.31;;;13.55;100.00
27334;BME280;14817;57.104;-2.094;2023-05-21T12:29:27;101440.06;;;13.75;100.00
27334;BME280;14817;57.104;-2.094;2023-05-21T12:31:59;101446.41;;;14.01;100.00
27334;BME280;14817;57.104;-2.094;2023-05-21T12:34:59;101443.22;;;13.70;100.00
27334;BME280;14817;57.104;-2.094;2023-05-21T12:37:27;101442.09;;;13.63;100.00
27334;BME280;14817;57.104;-2.094;2023-05-21T12:39:59;101435.41;;;13.49;100.00
27334;BME280;14817;57.104;-2.094;2023-05-21T12:42:28;101439.28;;;13.64;100.00
27334;BME280;14817;57.104;-2.094;2023-05-21T12:44:56;101445.34;;;13.39;100.00
27334;BME280;14817;57.104;-2.094;2023-05-21T12:47:24;101445.16;;;13.50;100.00
27334;BME280;14817;57.104;-2.094;2023-05-21T12:50:03;101450.50;;;13.13;100.00
27334;BME280;14817;57.104;-2.094;2023-05-21T12:52:30;101454.53;;;12.89;100.00
27334;BME280;14817;57.104;-2.094;2023-05-21T12:54:57;101440.22;;;12.98;100.00
27334;BME280;14817;57.104;-2.094;2023-05-21T12:57:26;101436.50;;;13.09;100.00
27334;BME280;14817;57.104;-2.094;2023-05-21T12:59:58;101448.69;;;13.03;100.00
27334;BME280;14817;57.104;-2.094;2023-05-21T13:02:31;101442.28;;;13.14;100.00